createdAt,value
2017-12-16T00:01:05.882Z,19.60
2017-12-16T00:03:33.271Z,19.83
2017-12-16T00:06:00.900Z,20.70
2017-12-16T00:08:28.279Z,19.30
2017-12-16T00:10:55.644Z,20.17
2017-12-16T00:13:22.992Z,20.60
2017-12-16T00:15:50.347Z,20.20
2017-12-16T00:18:17.715Z,21.50
2017-12-16T00:20:45.042Z,21.73
2017-12-16T00:23:12.359Z,19.93
2017-12-16T00:25:39.731Z,20.30
2017-12-16T00:28:07.063Z,21.70
2017-12-16T00:30:34.482Z,23.90
2017-12-16T00:33:01.848Z,19.60
2017-12-16T00:35:29.276Z,18.80
2017-12-16T00:37:56.583Z,19.50
2017-12-16T00:40:24.587Z,20.60
2017-12-16T00:42:51.933Z,18.83
2017-12-16T00:45:19.267Z,20.00
2017-12-16T00:47:46.617Z,18.87
2017-12-16T00:50:14.363Z,20.73
2017-12-16T00:52:41.735Z,18.97
2017-12-16T00:55:09.070Z,19.93
2017-12-16T00:57:36.440Z,20.77
2017-12-16T01:00:03.811Z,19.60
2017-12-16T01:02:31.123Z,19.70
2017-12-16T01:04:58.467Z,19.13
2017-12-16T01:07:25.834Z,20.07
2017-12-16T01:09:53.180Z,18.07
2017-12-16T01:12:20.519Z,21.70
2017-12-16T01:14:47.891Z,18.43
2017-12-16T01:17:15.270Z,19.53
2017-12-16T01:19:42.598Z,20.53
2017-12-16T01:22:09.932Z,19.37
2017-12-16T01:24:37.245Z,21.17
2017-12-16T01:27:04.606Z,19.53
2017-12-16T01:29:31.961Z,19.97
2017-12-16T01:31:59.272Z,18.70
2017-12-16T01:34:32.578Z,19.67
2017-12-16T01:37:05.796Z,18.90
2017-12-16T01:39:33.243Z,17.87
2017-12-16T01:42:00.571Z,18.80
2017-12-16T01:44:27.935Z,19.60
2017-12-16T01:46:55.313Z,20.17
2017-12-16T01:49:22.638Z,18.87
2017-12-16T01:51:50.050Z,19.60
2017-12-16T01:54:17.416Z,19.73
2017-12-16T01:56:44.734Z,20.47
2017-12-16T01:59:12.047Z,20.37
2017-12-16T02:01:39.399Z,19.50
2017-12-16T02:04:06.724Z,19.30
2017-12-16T02:06:34.070Z,18.70
2017-12-16T02:09:01.418Z,20.50
2017-12-16T02:11:28.762Z,20.07
2017-12-16T02:13:56.107Z,21.60
2017-12-16T02:16:23.492Z,19.53
2017-12-16T02:18:50.811Z,20.87
2017-12-16T02:21:18.206Z,19.90
2017-12-16T02:23:45.528Z,20.50
2017-12-16T02:26:12.852Z,19.37
2017-12-16T02:28:40.246Z,19.73
2017-12-16T02:31:07.563Z,20.40
2017-12-16T02:33:35.864Z,20.53
2017-12-16T02:36:03.263Z,19.90
2017-12-16T02:38:30.622Z,21.53
2017-12-16T02:40:58.967Z,19.53
2017-12-16T02:43:26.331Z,20.13
2017-12-16T02:45:53.666Z,21.10
2017-12-16T02:48:21.068Z,20.60
2017-12-16T02:50:48.418Z,19.87
2017-12-16T02:53:15.780Z,19.43
2017-12-16T02:55:43.159Z,18.83
2017-12-16T02:58:10.502Z,20.00
2017-12-16T03:00:37.822Z,20.03
2017-12-16T03:03:05.195Z,20.37
2017-12-16T03:05:32.511Z,20.10
2017-12-16T03:07:59.827Z,21.20
2017-12-16T03:10:27.222Z,21.43
2017-12-16T03:12:54.542Z,20.47
2017-12-16T03:15:21.887Z,18.90
2017-12-16T03:17:49.243Z,21.43
2017-12-16T03:20:16.645Z,18.87
2017-12-16T03:22:44.020Z,21.53
2017-12-16T03:25:11.412Z,18.70
2017-12-16T03:27:38.754Z,20.80
2017-12-16T03:30:06.141Z,19.33
2017-12-16T03:32:33.557Z,19.87
2017-12-16T03:35:00.871Z,21.10
2017-12-16T03:37:28.223Z,20.77
2017-12-16T03:39:55.586Z,20.27
2017-12-16T03:42:22.906Z,21.70
2017-12-16T03:44:50.231Z,20.73
2017-12-16T03:47:17.571Z,19.43
2017-12-16T03:49:44.893Z,20.20
2017-12-16T03:52:12.264Z,18.47
2017-12-16T03:54:39.595Z,21.40
2017-12-16T03:57:06.916Z,19.63
2017-12-16T03:59:34.270Z,20.37
2017-12-16T04:02:01.611Z,20.23
2017-12-16T04:04:28.966Z,19.80
2017-12-16T04:06:57.415Z,21.17
2017-12-16T04:09:24.732Z,21.43
2017-12-16T04:11:52.077Z,21.30
2017-12-16T04:14:19.478Z,20.17
2017-12-16T04:16:46.794Z,21.30
2017-12-16T04:19:14.158Z,20.00
2017-12-16T04:21:41.532Z,21.37
2017-12-16T04:24:08.868Z,19.23
2017-12-16T04:26:36.182Z,20.17
2017-12-16T04:29:03.530Z,19.23
2017-12-16T04:31:30.851Z,19.80
2017-12-16T04:33:58.211Z,19.30
2017-12-16T04:36:25.591Z,21.07
2017-12-16T04:38:52.967Z,19.67
2017-12-16T04:41:20.398Z,20.63
2017-12-16T04:43:47.706Z,20.20
2017-12-16T04:46:15.040Z,19.67
2017-12-16T04:48:42.458Z,20.33
2017-12-16T04:51:09.811Z,19.30
2017-12-16T04:53:37.114Z,19.63
2017-12-16T04:56:04.502Z,19.10
2017-12-16T04:58:31.818Z,21.07
2017-12-16T05:00:59.150Z,20.07
2017-12-16T05:03:26.502Z,18.90
2017-12-16T05:05:53.823Z,18.13
2017-12-16T05:08:22.738Z,19.33
2017-12-16T05:10:50.102Z,21.03
2017-12-16T05:13:17.446Z,20.33
2017-12-16T05:15:44.767Z,19.87
2017-12-16T05:18:12.138Z,21.70
2017-12-16T05:20:39.467Z,19.77
2017-12-16T05:23:06.799Z,19.30
2017-12-16T05:25:34.529Z,18.77
2017-12-16T05:28:01.839Z,19.57
2017-12-16T05:30:29.225Z,19.67
2017-12-16T05:32:56.593Z,20.47
2017-12-16T05:35:23.901Z,20.40
2017-12-16T05:37:51.247Z,21.00
2017-12-16T05:40:18.604Z,19.00
2017-12-16T05:42:46.036Z,22.90
2017-12-16T05:45:13.374Z,20.93
2017-12-16T05:47:40.736Z,20.73
2017-12-16T05:50:08.092Z,20.73
2017-12-16T05:52:35.490Z,20.27
2017-12-16T05:55:02.873Z,22.17
2017-12-16T05:57:30.190Z,19.90
2017-12-16T05:59:57.551Z,20.53
2017-12-16T06:02:24.943Z,21.00
2017-12-16T06:04:52.303Z,18.57
2017-12-16T06:07:19.662Z,19.07
2017-12-16T06:09:46.995Z,20.53
2017-12-16T06:12:14.315Z,18.77
2017-12-16T06:14:41.657Z,18.60
2017-12-16T06:17:09.063Z,20.37
2017-12-16T06:19:36.451Z,19.40
2017-12-16T06:22:03.856Z,20.83
2017-12-16T06:24:31.189Z,20.00
2017-12-16T06:26:58.569Z,21.93
2017-12-16T06:29:25.886Z,20.80
2017-12-16T06:31:53.251Z,20.40
2017-12-16T06:34:20.782Z,21.87
2017-12-16T06:36:48.140Z,21.20
2017-12-16T06:39:15.482Z,21.60
2017-12-16T06:41:42.886Z,19.00
2017-12-16T06:44:10.198Z,18.60
2017-12-16T06:46:37.570Z,20.77
2017-12-16T06:49:04.955Z,20.20
2017-12-16T06:51:32.279Z,20.10
2017-12-16T06:53:59.610Z,20.07
2017-12-16T06:56:26.998Z,19.57
2017-12-16T06:58:54.311Z,20.27
2017-12-16T07:01:21.623Z,19.40
2017-12-16T07:03:48.993Z,20.40
2017-12-16T07:06:16.302Z,18.97
2017-12-16T07:08:43.933Z,20.10
2017-12-16T07:11:11.275Z,19.60
2017-12-16T07:13:38.590Z,18.73
2017-12-16T07:16:05.902Z,19.03
2017-12-16T07:18:33.299Z,19.27
2017-12-16T07:21:00.978Z,19.33
2017-12-16T07:23:28.386Z,17.27
2017-12-16T07:25:56.106Z,17.53
2017-12-16T07:28:23.698Z,18.97
2017-12-16T07:30:51.022Z,18.53
2017-12-16T07:33:18.762Z,18.93
2017-12-16T07:35:46.374Z,18.67
2017-12-16T07:38:13.694Z,19.70
2017-12-16T07:40:41.055Z,18.40
2017-12-16T07:43:08.382Z,18.20
2017-12-16T07:45:35.722Z,21.83
2017-12-16T07:48:03.097Z,26.57
2017-12-16T07:50:30.409Z,27.90
2017-12-16T07:52:57.750Z,28.03
2017-12-16T07:55:25.132Z,33.47
2017-12-16T07:57:52.480Z,34.30
2017-12-16T08:00:19.797Z,48.00
2017-12-16T08:02:47.151Z,26.80
2017-12-16T08:05:14.465Z,25.03
2017-12-16T08:07:41.786Z,23.67
2017-12-16T08:10:09.182Z,29.90
2017-12-16T08:12:36.510Z,25.63
2017-12-16T08:15:03.853Z,21.67
2017-12-16T08:17:31.278Z,22.10
2017-12-16T08:19:58.648Z,21.63
2017-12-16T08:22:26.071Z,21.73
2017-12-16T08:24:53.476Z,22.00
2017-12-16T08:27:20.870Z,20.50
2017-12-16T08:29:48.187Z,22.40
2017-12-16T08:32:15.548Z,20.20
2017-12-16T08:34:43.216Z,22.63
2017-12-16T08:37:11.520Z,22.63
2017-12-16T08:39:38.832Z,23.60
2017-12-16T08:42:06.522Z,20.73
2017-12-16T08:44:33.843Z,19.00
2017-12-16T08:47:01.172Z,20.60
2017-12-16T08:49:28.514Z,19.90
2017-12-16T08:51:56.217Z,19.43
2017-12-16T08:54:23.914Z,20.40
2017-12-16T08:56:51.467Z,21.03
2017-12-16T08:59:19.118Z,20.70
2017-12-16T09:01:46.854Z,22.80
2017-12-16T09:04:14.219Z,22.10
2017-12-16T09:06:41.955Z,20.20
2017-12-16T09:09:09.732Z,21.40
2017-12-16T09:11:37.090Z,20.30
2017-12-16T09:14:04.405Z,21.30
2017-12-16T09:16:31.747Z,20.30
2017-12-16T09:18:59.078Z,19.90
2017-12-16T09:21:26.879Z,18.17
2017-12-16T09:23:54.295Z,19.27
2017-12-16T09:26:21.846Z,20.40
2017-12-16T09:28:49.628Z,20.30
2017-12-16T09:31:17.279Z,19.07
2017-12-16T09:33:44.918Z,20.13
2017-12-16T09:36:12.391Z,17.50
2017-12-16T09:38:40.289Z,19.30
2017-12-16T09:41:07.970Z,19.53
2017-12-16T09:43:35.400Z,20.60
2017-12-16T09:46:03.030Z,20.60
2017-12-16T09:48:30.387Z,18.40
2017-12-16T09:50:57.711Z,20.70
2017-12-16T09:53:25.060Z,20.20
2017-12-16T09:55:52.424Z,21.10
2017-12-16T09:58:19.782Z,20.57
2017-12-16T10:00:47.113Z,18.53
2017-12-16T10:03:14.488Z,19.67
2017-12-16T10:05:42.117Z,21.37
2017-12-16T10:08:09.459Z,20.33
2017-12-16T10:10:36.866Z,20.90
2017-12-16T10:13:04.176Z,19.73
2017-12-16T10:15:31.559Z,22.60
2017-12-16T10:17:58.878Z,20.27
2017-12-16T10:20:26.602Z,19.17
2017-12-16T10:22:53.969Z,20.60
2017-12-16T10:25:21.332Z,21.13
2017-12-16T10:27:48.730Z,19.10
2017-12-16T10:30:16.062Z,20.27
2017-12-16T10:32:43.651Z,20.03
2017-12-16T10:35:11.379Z,20.37
2017-12-16T10:37:39.020Z,19.63
2017-12-16T10:40:06.718Z,20.80
2017-12-16T10:42:34.040Z,20.63
2017-12-16T10:45:01.349Z,20.37
2017-12-16T10:47:28.739Z,19.40
2017-12-16T10:49:56.063Z,19.27
2017-12-16T10:52:23.406Z,20.47
2017-12-16T10:54:50.986Z,20.40
2017-12-16T10:57:18.359Z,23.83
2017-12-16T10:59:45.742Z,19.73
2017-12-16T11:02:13.103Z,22.40
2017-12-16T11:04:41.299Z,21.50
2017-12-16T11:07:08.963Z,19.93
2017-12-16T11:09:36.405Z,20.53
2017-12-16T11:12:03.728Z,22.53
2017-12-16T11:14:31.070Z,20.00
2017-12-16T11:16:58.440Z,24.00
2017-12-16T11:19:25.799Z,21.70
2017-12-16T11:21:53.148Z,22.00
2017-12-16T11:24:20.549Z,21.27
2017-12-16T11:26:47.894Z,23.50
2017-12-16T11:29:15.234Z,23.90
2017-12-16T11:31:42.601Z,21.70
2017-12-16T11:34:09.930Z,22.63
2017-12-16T11:36:37.272Z,21.03
2017-12-16T11:39:04.646Z,21.70
2017-12-16T11:41:32.929Z,21.60
2017-12-16T11:44:00.247Z,21.57
2017-12-16T11:46:27.608Z,20.07
2017-12-16T11:48:54.963Z,22.77
2017-12-16T11:51:22.315Z,18.33
2017-12-16T11:53:50.008Z,16.97
2017-12-16T11:56:17.326Z,17.10
2017-12-16T11:58:44.655Z,15.67
2017-12-16T12:01:13.866Z,16.50
2017-12-16T12:03:41.262Z,16.20
2017-12-16T12:06:08.626Z,15.37
2017-12-16T12:08:36.019Z,14.97
2017-12-16T12:11:03.327Z,13.40
2017-12-16T12:13:30.685Z,13.50
2017-12-16T12:15:58.059Z,14.73
2017-12-16T12:18:25.375Z,13.33
2017-12-16T12:20:54.774Z,15.83
2017-12-16T12:23:22.222Z,14.30
2017-12-16T12:25:49.663Z,15.10
2017-12-16T12:28:17.011Z,15.00
2017-12-16T12:30:44.412Z,15.93
2017-12-16T12:33:11.742Z,16.80
2017-12-16T12:35:39.086Z,15.07
2017-12-16T12:38:06.441Z,15.47
2017-12-16T12:40:33.783Z,15.50
2017-12-16T12:43:01.119Z,15.70
2017-12-16T12:45:28.491Z,15.80
2017-12-16T12:47:55.830Z,16.23
2017-12-16T12:50:23.162Z,16.23
2017-12-16T12:52:50.533Z,13.90
2017-12-16T12:55:17.861Z,13.43
2017-12-16T12:57:45.270Z,15.10
2017-12-16T13:00:12.765Z,16.27
2017-12-16T13:02:40.105Z,15.40
2017-12-16T13:05:07.442Z,14.57
2017-12-16T13:07:34.942Z,15.90
2017-12-16T13:10:02.314Z,15.50
2017-12-16T13:12:29.690Z,16.53
2017-12-16T13:14:57.011Z,17.20
2017-12-16T13:17:24.339Z,15.17
2017-12-16T13:19:52.042Z,15.83
2017-12-16T13:22:19.386Z,16.77
2017-12-16T13:24:46.723Z,17.70
2017-12-16T13:27:14.114Z,17.37
2017-12-16T13:29:41.464Z,17.30
2017-12-16T13:32:08.769Z,17.23
2017-12-16T13:34:36.246Z,17.43
2017-12-16T13:37:03.574Z,16.47
2017-12-16T13:39:30.927Z,16.10
2017-12-16T13:41:58.343Z,17.07
2017-12-16T13:44:25.655Z,16.57
2017-12-16T13:46:52.986Z,16.27
2017-12-16T13:49:20.351Z,15.33
2017-12-16T13:51:47.751Z,15.93
2017-12-16T13:54:15.066Z,16.40
2017-12-16T13:56:42.480Z,15.97
2017-12-16T13:59:09.794Z,16.50
2017-12-16T14:01:37.118Z,16.90
2017-12-16T14:04:04.515Z,17.60
2017-12-16T14:06:31.835Z,18.00
2017-12-16T14:08:59.207Z,18.10
2017-12-16T14:11:26.578Z,17.43
2017-12-16T14:13:53.958Z,17.77
2017-12-16T14:16:21.275Z,18.40
2017-12-16T14:18:48.659Z,16.90
2017-12-16T14:21:15.974Z,17.77
2017-12-16T14:23:43.319Z,18.87
2017-12-16T14:26:10.923Z,18.47
2017-12-16T14:28:38.256Z,16.53
2017-12-16T14:31:05.586Z,17.30
2017-12-16T14:33:33.123Z,16.53
2017-12-16T14:36:00.438Z,17.10
2017-12-16T14:38:27.796Z,17.27
2017-12-16T14:40:55.177Z,15.37
2017-12-16T14:43:22.490Z,15.10
2017-12-16T14:45:49.798Z,14.13
2017-12-16T14:48:17.318Z,15.13
2017-12-16T14:50:44.650Z,16.40
2017-12-16T14:53:12.048Z,16.27
2017-12-16T14:55:39.474Z,15.47
2017-12-16T14:58:06.778Z,16.27
2017-12-16T15:00:34.097Z,16.70
2017-12-16T15:03:01.455Z,15.47
2017-12-16T15:05:28.871Z,15.77
2017-12-16T15:07:56.531Z,14.87
2017-12-16T15:10:24.179Z,15.10
2017-12-16T15:12:51.842Z,14.97
2017-12-16T15:15:19.554Z,15.60
2017-12-16T15:17:46.939Z,15.03
2017-12-16T15:20:14.253Z,15.57
2017-12-16T15:22:41.622Z,15.10
2017-12-16T15:25:08.942Z,15.73
2017-12-16T15:27:36.315Z,16.40
2017-12-16T15:30:03.719Z,16.43
2017-12-16T15:32:31.047Z,17.37
2017-12-16T15:34:59.283Z,14.33
2017-12-16T15:37:26.657Z,16.73
2017-12-16T15:39:54.118Z,16.47
2017-12-16T15:42:21.446Z,15.90
2017-12-16T15:44:49.134Z,16.50
2017-12-16T15:47:16.541Z,15.50
2017-12-16T15:49:44.202Z,18.53
2017-12-16T15:52:11.563Z,18.77
2017-12-16T15:54:39.287Z,16.97
2017-12-16T15:57:07.143Z,17.13
2017-12-16T15:59:34.574Z,16.43
2017-12-16T16:02:02.195Z,14.13
2017-12-16T16:04:29.515Z,16.60
2017-12-16T16:06:56.961Z,16.00
2017-12-16T16:09:24.298Z,15.97
2017-12-16T16:11:51.631Z,15.50
2017-12-16T16:14:19.011Z,16.80
2017-12-16T16:16:46.784Z,16.50
2017-12-16T16:19:14.131Z,17.40
2017-12-16T16:21:41.533Z,16.47
2017-12-16T16:24:08.855Z,15.50
2017-12-16T16:26:36.198Z,15.97
2017-12-16T16:29:03.566Z,14.57
2017-12-16T16:31:31.867Z,16.00
2017-12-16T16:33:59.216Z,15.63
2017-12-16T16:36:26.589Z,16.03
2017-12-16T16:38:54.048Z,15.90
2017-12-16T16:41:21.404Z,16.33
2017-12-16T16:43:48.821Z,16.80
2017-12-16T16:46:16.367Z,15.30
2017-12-16T16:48:43.766Z,15.57
2017-12-16T16:51:11.090Z,15.10
2017-12-16T16:53:38.442Z,16.80
2017-12-16T16:56:05.807Z,15.63
2017-12-16T16:58:33.130Z,16.57
2017-12-16T17:01:00.473Z,17.57
2017-12-16T17:03:27.962Z,18.80
2017-12-16T17:05:55.292Z,16.97
2017-12-16T17:08:22.640Z,19.40
2017-12-16T17:10:50.010Z,18.13
2017-12-16T17:13:17.326Z,18.50
2017-12-16T17:15:44.644Z,16.40
2017-12-16T17:18:12.002Z,19.37
2017-12-16T17:20:39.329Z,18.40
2017-12-16T17:23:06.650Z,18.13
2017-12-16T17:25:34.073Z,17.10
2017-12-16T17:28:01.388Z,19.30
2017-12-16T17:30:28.702Z,18.17
2017-12-16T17:32:56.069Z,19.03
2017-12-16T17:35:23.726Z,18.20
2017-12-16T17:37:51.054Z,20.43
2017-12-16T17:40:18.791Z,19.10
2017-12-16T17:42:46.212Z,17.70
2017-12-16T17:45:13.634Z,17.00
2017-12-16T17:47:41.022Z,18.73
2017-12-16T17:50:08.371Z,18.03
2017-12-16T17:52:35.718Z,18.40
2017-12-16T17:55:03.123Z,15.50
2017-12-16T17:57:30.467Z,18.43
2017-12-16T17:59:57.809Z,16.70
2017-12-16T18:02:25.200Z,17.00
2017-12-16T18:04:52.524Z,15.17
2017-12-16T18:07:19.871Z,17.97
2017-12-16T18:09:47.279Z,17.60
2017-12-16T18:12:14.595Z,19.63
2017-12-16T18:14:41.915Z,18.10
2017-12-16T18:17:09.263Z,18.43
2017-12-16T18:19:36.596Z,17.17
2017-12-16T18:22:03.918Z,16.57
2017-12-16T18:24:31.290Z,16.87
2017-12-16T18:26:58.687Z,16.53
2017-12-16T18:29:26.100Z,16.50
2017-12-16T18:31:53.494Z,15.30
2017-12-16T18:34:21.167Z,15.50
2017-12-16T18:36:48.834Z,15.57
2017-12-16T18:39:16.472Z,16.47
2017-12-16T18:41:44.142Z,15.60
2017-12-16T18:44:11.855Z,16.37
2017-12-16T18:46:39.180Z,15.07
2017-12-16T18:49:06.839Z,15.37
2017-12-16T18:51:34.230Z,14.40
2017-12-16T18:54:01.555Z,15.10
2017-12-16T18:56:28.889Z,15.27
2017-12-16T18:58:56.319Z,16.97
2017-12-16T19:01:23.637Z,16.13
2017-12-16T19:03:50.951Z,17.50
2017-12-16T19:06:18.648Z,15.50
2017-12-16T19:08:45.963Z,15.80
2017-12-16T19:11:13.287Z,15.93
2017-12-16T19:13:41.121Z,13.80
2017-12-16T19:16:08.459Z,14.80
2017-12-16T19:18:35.819Z,13.87
2017-12-16T19:21:03.204Z,14.60
2017-12-16T19:23:31.448Z,13.67
2017-12-16T19:25:58.771Z,13.63
2017-12-16T19:28:26.124Z,14.70
2017-12-16T19:30:53.427Z,15.90
2017-12-16T19:33:20.754Z,13.37
2017-12-16T19:35:48.153Z,13.30
2017-12-16T19:38:15.940Z,14.67
2017-12-16T19:40:43.518Z,14.93
2017-12-16T19:43:10.878Z,15.20
2017-12-16T19:45:38.279Z,15.53
2017-12-16T19:48:05.645Z,14.93
2017-12-16T19:50:33.115Z,14.90
2017-12-16T19:53:00.491Z,14.60
2017-12-16T19:55:27.832Z,13.40
2017-12-16T19:57:55.544Z,14.53
2017-12-16T20:00:23.158Z,14.67
2017-12-16T20:02:50.477Z,13.57
2017-12-16T20:05:18.081Z,14.57
2017-12-16T20:07:45.498Z,15.20
2017-12-16T20:10:13.190Z,14.70
2017-12-16T20:12:40.558Z,15.20
2017-12-16T20:15:07.895Z,14.53
2017-12-16T20:17:35.299Z,14.27
2017-12-16T20:20:02.650Z,12.80
2017-12-16T20:22:30.283Z,15.10
2017-12-16T20:24:57.607Z,15.50
2017-12-16T20:27:25.063Z,14.07
2017-12-16T20:29:52.370Z,14.53
2017-12-16T20:32:19.758Z,13.90
2017-12-16T20:34:47.235Z,14.77
2017-12-16T20:37:15.579Z,12.47
2017-12-16T20:39:42.966Z,13.67
2017-12-16T20:42:10.342Z,13.63
2017-12-16T20:44:37.799Z,14.30
2017-12-16T20:47:05.176Z,13.13
2017-12-16T20:49:32.558Z,13.10
2017-12-16T20:52:00.665Z,12.70
2017-12-16T20:54:28.038Z,14.67
2017-12-16T20:56:55.350Z,13.20
2017-12-16T20:59:22.718Z,13.47
2017-12-16T21:01:50.503Z,13.80
2017-12-16T21:04:17.960Z,13.80
2017-12-16T21:06:45.666Z,12.93
2017-12-16T21:09:12.988Z,14.13
2017-12-16T21:11:40.343Z,13.40
2017-12-16T21:14:07.699Z,13.30
2017-12-16T21:16:35.035Z,14.27
2017-12-16T21:19:02.716Z,14.57
2017-12-16T21:21:30.142Z,14.07
2017-12-16T21:23:57.503Z,13.93
2017-12-16T21:26:25.186Z,14.03
2017-12-16T21:28:52.551Z,13.57
2017-12-16T21:31:20.191Z,13.30
2017-12-16T21:33:47.851Z,13.70
2017-12-16T21:36:15.551Z,14.50
2017-12-16T21:38:43.188Z,13.37
2017-12-16T21:41:10.507Z,14.03
2017-12-16T21:43:38.104Z,13.43
2017-12-16T21:46:05.641Z,13.27
2017-12-16T21:48:33.331Z,13.80
2017-12-16T21:51:01.094Z,12.87
2017-12-16T21:53:28.601Z,12.33
2017-12-16T21:55:56.331Z,12.20
2017-12-16T21:58:24.034Z,13.10
2017-12-16T22:00:51.779Z,11.97
2017-12-16T22:03:19.152Z,13.40
2017-12-16T22:05:46.633Z,11.20
2017-12-16T22:08:15.443Z,12.00
2017-12-16T22:10:42.911Z,12.77
2017-12-16T22:13:10.571Z,11.90
2017-12-16T22:15:37.913Z,11.03
2017-12-16T22:18:05.265Z,12.10
2017-12-16T22:20:32.576Z,11.43
2017-12-16T22:22:59.960Z,11.10
2017-12-16T22:25:27.667Z,10.50
2017-12-16T22:27:55.286Z,10.27
2017-12-16T22:30:22.604Z,10.07
2017-12-16T22:32:49.959Z,9.97
2017-12-16T22:35:17.287Z,10.93
2017-12-16T22:37:44.622Z,11.30
2017-12-16T22:40:12.139Z,11.07
2017-12-16T22:42:39.463Z,11.30
2017-12-16T22:45:07.095Z,11.17
2017-12-16T22:47:34.784Z,11.17
2017-12-16T22:50:02.101Z,13.17
2017-12-16T22:52:29.492Z,10.67
2017-12-16T22:54:57.165Z,12.30
2017-12-16T22:57:24.487Z,10.30
2017-12-16T22:59:52.127Z,12.30
2017-12-16T23:02:19.841Z,10.80
2017-12-16T23:04:47.192Z,11.53
2017-12-16T23:07:14.507Z,11.23
2017-12-16T23:09:41.850Z,11.23
2017-12-16T23:12:09.184Z,11.47
2017-12-16T23:14:36.618Z,13.10
2017-12-16T23:17:03.954Z,11.40
2017-12-16T23:19:31.584Z,10.83
2017-12-16T23:21:58.977Z,11.70
2017-12-16T23:24:26.607Z,11.80
2017-12-16T23:26:53.934Z,10.73
2017-12-16T23:29:21.323Z,11.50
2017-12-16T23:31:48.975Z,11.20
2017-12-16T23:34:16.287Z,10.77
2017-12-16T23:36:44.019Z,11.40
2017-12-16T23:39:11.359Z,10.60
2017-12-16T23:41:39.002Z,10.60
2017-12-16T23:44:06.446Z,10.53
2017-12-16T23:46:34.197Z,10.57
2017-12-16T23:49:01.888Z,9.73
2017-12-16T23:51:29.323Z,9.80
2017-12-16T23:53:57.118Z,10.30
2017-12-16T23:56:24.774Z,9.27
2017-12-16T23:58:52.138Z,8.20
